Time;durP1;ratioP1;P1;durP2;ratioP2;P2;SDS_P1;SDS_P2;PMS_P1;PMS_P2;Temp;Humidity;BMP_temperature;BMP_pressure;BME280_temperature;BME280_humidity;BME280_pressure;Samples;Min_cycle;Max_cycle;Signal;HPM_P1;HPM_P2
2023/12/04 00:02:15;;;;;;;28.05;10.93;;;;;;;6.26;65.63;101271.56;5010105;28;20034;-46
2023/12/04 00:04:40;;;;;;;21.23;9.73;;;;;;;6.30;65.21;101263.06;5007792;28;20069;-47
2023/12/04 00:07:05;;;;;;;21.45;10.18;;;;;;;6.40;64.78;101261.72;5010422;28;20531;-43
2023/12/04 00:09:30;;;;;;;22.60;10.20;;;;;;;6.42;64.84;101253.16;5010216;28;20125;-44
2023/12/04 00:11:56;;;;;;;24.33;10.30;;;;;;;6.44;64.73;101258.41;5010294;28;20125;-47
2023/12/04 00:14:21;;;;;;;23.10;10.75;;;;;;;6.38;65.08;101263.38;5009590;28;20038;-44
2023/12/04 00:16:46;;;;;;;23.40;10.48;;;;;;;6.14;66.07;101254.69;5009721;28;20053;-45
2023/12/04 00:19:12;;;;;;;22.77;10.07;;;;;;;6.31;65.56;101253.59;5009846;28;20116;-45
2023/12/04 00:21:37;;;;;;;22.92;10.15;;;;;;;6.26;65.70;101245.69;5009502;28;20650;-46
2023/12/04 00:24:04;;;;;;;24.70;10.93;;;;;;;6.34;65.00;101246.81;5009827;28;20057;-47
2023/12/04 00:26:29;;;;;;;22.90;9.93;;;;;;;6.33;65.75;101239.03;5012640;28;20045;-46
2023/12/04 00:28:54;;;;;;;23.10;10.07;;;;;;;5.99;66.42;101237.75;5013832;28;20038;-50
2023/12/04 00:31:20;;;;;;;22.95;10.55;;;;;;;6.27;65.24;101226.72;5012941;28;20030;-44
2023/12/04 00:33:45;;;;;;;24.42;10.48;;;;;;;6.40;65.05;101230.66;5013561;28;20053;-44
2023/12/04 00:36:11;;;;;;;22.20;10.07;;;;;;;6.35;65.85;101232.16;5013615;28;20507;-45
2023/12/04 00:38:36;;;;;;;25.48;11.38;;;;;;;6.19;65.78;101224.69;5012860;28;20496;-43
2023/12/04 00:41:02;;;;;;;24.48;10.23;;;;;;;6.37;65.30;101221.03;5013257;28;20088;-47
2023/12/04 00:43:27;;;;;;;22.02;10.25;;;;;;;6.35;64.97;101227.88;5012774;28;20523;-44
2023/12/04 00:45:52;;;;;;;23.67;10.27;;;;;;;6.05;66.17;101216.41;5013416;28;20064;-47
2023/12/04 00:48:18;;;;;;;22.58;10.93;;;;;;;6.13;65.43;101219.28;5013149;28;20057;-46
2023/12/04 00:50:43;;;;;;;25.58;11.00;;;;;;;6.21;65.29;101223.03;5012774;28;20129;-47
2023/12/04 00:53:08;;;;;;;22.50;11.10;;;;;;;6.27;65.12;101213.78;5013098;28;20041;-45
2023/12/04 00:55:34;;;;;;;23.60;10.60;;;;;;;6.26;65.38;101217.19;5012737;28;20085;-46
2023/12/04 00:57:59;;;;;;;23.88;10.48;;;;;;;6.12;65.66;101210.63;5013249;28;20042;-45
2023/12/04 01:00:24;;;;;;;22.98;10.45;;;;;;;6.06;65.47;101223.34;5012449;28;20045;-44
2023/12/04 01:02:51;;;;;;;22.98;10.18;;;;;;;6.23;65.47;101206.72;5013415;28;20042;-48
2023/12/04 01:05:16;;;;;;;21.92;10.45;;;;;;;6.23;65.30;101206.72;5013655;28;20050;-46
2023/12/04 01:07:42;;;;;;;20.95;9.50;;;;;;;6.01;65.96;101199.00;5012761;28;20045;-45
2023/12/04 01:10:07;;;;;;;24.75;10.70;;;;;;;6.23;65.65;101190.28;5012990;28;20041;-45
2023/12/04 01:12:33;;;;;;;21.83;10.38;;;;;;;6.30;65.06;101188.00;5012558;28;20038;-46
2023/12/04 01:14:58;;;;;;;25.17;10.48;;;;;;;6.36;64.33;101192.50;5011468;28;20030;-47
2023/12/04 01:17:23;;;;;;;21.30;9.65;;;;;;;5.72;66.15;101182.38;5010928;28;20038;-45
2023/12/04 01:19:49;;;;;;;20.98;10.13;;;;;;;6.29;64.71;101183.63;5012767;28;20034;-45
2023/12/04 01:22:14;;;;;;;23.58;9.85;;;;;;;6.06;65.46;101180.22;5013014;28;20428;-46
2023/12/04 01:24:39;;;;;;;23.40;10.38;;;;;;;5.83;65.61;101175.00;5012428;28;20045;-45
2023/12/04 01:27:05;;;;;;;22.23;10.82;;;;;;;5.41;67.20;101172.56;5012810;28;20026;-47
2023/12/04 01:29:31;;;;;;;21.58;9.90;;;;;;;5.71;66.01;101170.25;5012002;28;20073;-47
2023/12/04 01:31:57;;;;;;;21.27;9.73;;;;;;;5.71;66.06;101165.09;5012319;28;20460;-49
2023/12/04 01:34:22;;;;;;;23.88;10.20;;;;;;;5.80;65.84;101157.66;5012312;28;20034;-43
2023/12/04 01:36:48;;;;;;;25.60;10.63;;;;;;;6.06;64.95;101151.75;5012875;28;20068;-50
2023/12/04 01:39:13;;;;;;;23.10;10.35;;;;;;;5.82;65.03;101145.66;5012837;28;20065;-52
2023/12/04 01:41:40;;;;;;;21.05;9.70;;;;;;;5.77;65.50;101148.91;5011961;28;21443;-46
2023/12/04 01:44:05;;;;;;;21.23;10.35;;;;;;;5.96;64.60;101154.84;5013186;28;20037;-45
2023/12/04 01:46:30;;;;;;;22.52;9.93;;;;;;;6.06;64.41;101151.75;5012878;28;20042;-45
2023/12/04 01:48:56;;;;;;;21.55;10.63;;;;;;;5.84;64.98;101154.38;5013322;28;20049;-47
2023/12/04 01:51:23;;;;;;;20.77;9.45;;;;;;;6.34;63.02;101153.59;5012084;28;20392;-47
2023/12/04 01:53:48;;;;;;;21.98;9.93;;;;;;;6.40;63.08;101146.03;5012263;28;20032;-49
2023/12/04 01:56:14;;;;;;;21.63;10.25;;;;;;;6.12;63.88;101140.75;5012077;28;20133;-46
2023/12/04 01:58:40;;;;;;;26.02;10.82;;;;;;;6.06;64.12;101146.59;5011249;28;20121;-44
2023/12/04 02:01:06;;;;;;;23.90;10.52;;;;;;;6.17;63.90;101143.47;5011761;28;20113;-45
2023/12/04 02:03:32;;;;;;;21.98;10.18;;;;;;;6.06;64.13;101141.41;4993418;28;20041;-46
2023/12/04 02:06:00;;;;;;;23.58;10.02;;;;;;;5.72;65.36;101135.81;5011803;28;20408;-47
2023/12/04 02:08:26;;;;;;;21.77;10.30;;;;;;;5.71;65.68;101132.34;5011140;28;20056;-47
2023/12/04 02:10:51;;;;;;;22.67;10.48;;;;;;;5.98;64.67;101124.72;5011780;28;20397;-45
2023/12/04 02:13:17;;;;;;;23.90;10.00;;;;;;;5.85;64.82;101124.22;5011712;28;20049;-47
2023/12/04 02:15:43;;;;;;;19.08;9.35;;;;;;;5.93;64.52;101125.38;5011330;28;20034;-45
2023/12/04 02:18:08;;;;;;;19.70;9.05;;;;;;;5.96;64.52;101121.22;5011771;28;20026;-45
2023/12/04 02:20:34;;;;;;;22.67;9.82;;;;;;;6.04;64.17;101119.75;5011052;28;20038;-45
2023/12/04 02:23:01;;;;;;;21.90;9.93;;;;;;;5.90;64.50;101115.81;5011518;28;20042;-46
2023/12/04 02:25:27;;;;;;;22.00;9.60;;;;;;;5.84;64.84;101115.56;5011065;28;20048;-44
2023/12/04 02:27:54;;;;;;;21.35;9.73;;;;;;;5.96;64.46;101110.84;5011571;28;20113;-49
2023/12/04 02:30:22;;;;;;;21.55;10.00;;;;;;;5.83;65.10;101105.16;5011058;28;20042;-46
2023/12/04 02:32:48;;;;;;;22.60;10.27;;;;;;;5.73;65.13;101098.78;5011214;28;20045;-47
2023/12/04 02:35:21;;;;;;;19.58;9.25;;;;;;;5.97;64.21;101089.34;5011695;28;20483;-45
2023/12/04 02:37:47;;;;;;;21.52;9.00;;;;;;;5.84;64.20;101092.28;5012375;28;20140;-47
2023/12/04 02:40:13;;;;;;;22.27;9.77;;;;;;;5.91;63.94;101086.53;5011727;28;20532;-45
2023/12/04 02:42:38;;;;;;;20.95;9.60;;;;;;;5.87;64.10;101087.22;5009959;28;20054;-47
2023/12/04 02:45:04;;;;;;;19.55;9.48;;;;;;;6.01;63.51;101079.97;5010948;28;20038;-46
2023/12/04 02:47:29;;;;;;;18.20;9.07;;;;;;;5.66;64.50;101074.41;5010227;28;20045;-45
2023/12/04 02:49:54;;;;;;;21.48;8.95;;;;;;;6.00;63.31;101070.44;5011276;28;20037;-46
2023/12/04 02:52:20;;;;;;;19.48;9.35;;;;;;;6.14;62.97;101068.31;5011253;28;20111;-44
2023/12/04 02:54:45;;;;;;;19.83;8.98;;;;;;;5.88;63.27;101078.66;5011158;28;20084;-44
2023/12/04 02:57:10;;;;;;;18.08;8.88;;;;;;;6.05;62.65;101067.16;5011445;28;20030;-49
2023/12/04 02:59:36;;;;;;;22.67;8.98;;;;;;;6.16;62.67;101058.91;5010621;28;20042;-44
2023/12/04 03:02:01;;;;;;;19.67;9.18;;;;;;;6.01;62.47;101054.09;5010372;28;20026;-50
2023/12/04 03:04:29;;;;;;;19.85;8.98;;;;;;;5.84;62.77;101061.22;5010456;28;20054;-46
2023/12/04 03:06:54;;;;;;;18.75;8.75;;;;;;;6.33;61.67;101053.47;5011469;28;20159;-44
2023/12/04 03:09:19;;;;;;;18.63;9.30;;;;;;;6.23;62.11;101053.97;5010831;28;20046;-45
2023/12/04 03:11:45;;;;;;;18.92;8.65;;;;;;;5.84;62.70;101037.94;5010513;28;20448;-47
2023/12/04 03:14:10;;;;;;;22.33;8.82;;;;;;;6.03;62.51;101037.78;5011123;28;20049;-45
2023/12/04 03:16:35;;;;;;;19.63;8.85;;;;;;;5.82;62.18;101028.34;5011051;28;20065;-46
2023/12/04 03:19:01;;;;;;;19.70;9.18;;;;;;;5.76;62.09;101025.56;5012372;28;20040;-44
2023/12/04 03:21:28;;;;;;;17.15;7.80;;;;;;;5.87;61.91;101019.97;5012015;28;20092;-46
2023/12/04 03:23:54;;;;;;;19.77;8.63;;;;;;;5.85;61.77;101020.72;5012691;28;20083;-46
2023/12/04 03:26:19;;;;;;;19.98;9.00;;;;;;;5.78;61.85;101013.56;5013167;28;20128;-49
2023/12/04 03:28:44;;;;;;;18.02;8.45;;;;;;;5.73;62.14;101005.66;5009933;28;20034;-45
2023/12/04 03:31:10;;;;;;;16.60;7.80;;;;;;;5.76;61.48;100997.97;5010322;28;20037;-44
2023/12/04 03:33:35;;;;;;;17.80;8.20;;;;;;;5.83;61.46;100997.38;5010506;28;20034;-47
2023/12/04 03:36:00;;;;;;;16.58;7.82;;;;;;;5.88;60.89;100997.56;5010493;28;20034;-49
2023/12/04 03:38:26;;;;;;;16.48;7.88;;;;;;;5.91;61.02;100984.75;5009921;28;20060;-45
2023/12/04 03:40:51;;;;;;;18.67;8.55;;;;;;;6.09;60.47;100983.66;5010013;28;20030;-47
2023/12/04 03:43:17;;;;;;;17.80;8.10;;;;;;;5.65;61.12;100984.69;5010128;28;20068;-49
2023/12/04 03:45:42;;;;;;;16.15;7.70;;;;;;;5.94;60.36;100985.72;5009803;28;20026;-45
2023/12/04 03:48:08;;;;;;;18.70;7.80;;;;;;;6.19;59.70;100974.47;5008924;28;20045;-46
2023/12/04 03:50:33;;;;;;;17.90;7.63;;;;;;;6.14;59.65;100975.13;5009548;28;20042;-45
2023/12/04 03:52:59;;;;;;;16.85;7.45;;;;;;;5.57;61.07;100978.34;5009990;28;20512;-49
2023/12/04 03:55:24;;;;;;;14.95;7.20;;;;;;;5.91;60.67;100977.84;5009208;28;20030;-46
2023/12/04 03:57:49;;;;;;;15.18;7.53;;;;;;;5.55;61.08;100963.63;5010169;28;20037;-47
2023/12/04 04:00:15;;;;;;;16.15;7.78;;;;;;;5.45;61.57;100970.16;5010964;28;20049;-45
2023/12/04 04:02:43;;;;;;;17.02;8.13;;;;;;;5.79;60.45;100961.00;5013577;28;20037;-46
2023/12/04 04:05:08;;;;;;;16.20;7.30;;;;;;;5.75;60.62;100953.94;5013497;28;20064;-46
2023/12/04 04:07:33;;;;;;;15.20;7.32;;;;;;;5.52;61.28;100954.06;5013661;28;20116;-46
2023/12/04 04:09:59;;;;;;;16.17;7.07;;;;;;;5.88;59.85;100944.09;5013717;28;20489;-45
2023/12/04 04:12:24;;;;;;;16.23;7.50;;;;;;;5.86;60.26;100950.00;5011818;28;20038;-45
2023/12/04 04:14:49;;;;;;;16.48;7.03;;;;;;;5.78;59.89;100947.19;5014257;28;20033;-45
2023/12/04 04:17:15;;;;;;;15.65;7.45;;;;;;;5.71;60.43;100950.38;5014140;28;20472;-44
2023/12/04 04:19:41;;;;;;;14.45;7.07;;;;;;;5.78;59.98;100944.59;5013114;28;20040;-50
2023/12/04 04:22:06;;;;;;;14.73;6.93;;;;;;;5.85;59.88;100951.75;5014112;28;20089;-48
2023/12/04 04:24:31;;;;;;;16.38;7.03;;;;;;;5.89;59.78;100935.53;5013781;28;20030;-46
2023/12/04 04:26:57;;;;;;;14.93;6.72;;;;;;;5.71;59.97;100932.28;5014095;28;20754;-47
2023/12/04 04:29:22;;;;;;;14.98;6.78;;;;;;;5.51;59.96;100928.13;5013932;28;20046;-46
2023/12/04 04:31:47;;;;;;;16.77;7.15;;;;;;;5.69;60.01;100933.94;5013836;28;20058;-47
2023/12/04 04:34:12;;;;;;;16.65;7.40;;;;;;;6.17;58.73;100923.47;5014119;28;20113;-49
2023/12/04 04:36:38;;;;;;;14.55;6.85;;;;;;;5.89;59.07;100925.16;5013351;28;20072;-46
2023/12/04 04:39:04;;;;;;;15.80;7.40;;;;;;;6.03;58.98;100923.03;5014131;28;20454;-47
2023/12/04 04:41:30;;;;;;;15.90;6.78;;;;;;;5.87;59.39;100915.56;5013497;28;20057;-46
2023/12/04 04:43:55;;;;;;;15.20;6.93;;;;;;;5.87;59.01;100920.72;5014171;28;20091;-47
2023/12/04 04:46:20;;;;;;;16.15;7.15;;;;;;;5.87;59.51;100918.13;5014061;28;20096;-45
2023/12/04 04:48:46;;;;;;;15.95;7.00;;;;;;;5.83;59.23;100919.75;5013761;28;20078;-45
2023/12/04 04:51:11;;;;;;;14.57;7.03;;;;;;;5.57;60.07;100912.81;5012767;28;20034;-46
2023/12/04 04:53:36;;;;;;;16.02;6.82;;;;;;;5.73;59.73;100909.94;5013989;28;20042;-45
2023/12/04 04:56:02;;;;;;;13.25;6.30;;;;;;;5.87;59.45;100912.97;5014306;28;20034;-49
2023/12/04 04:58:27;;;;;;;14.93;6.88;;;;;;;5.76;59.34;100901.38;5013734;28;20034;-44
2023/12/04 05:00:52;;;;;;;13.73;7.10;;;;;;;5.74;59.66;100890.97;5014323;28;20141;-46
2023/12/04 05:03:18;;;;;;;15.35;7.43;;;;;;;5.69;59.77;100884.78;5014664;28;20515;-46
2023/12/04 05:05:43;;;;;;;15.70;7.13;;;;;;;5.78;59.15;100890.28;5013186;28;20500;-44
2023/12/04 05:08:08;;;;;;;15.15;7.20;;;;;;;5.75;59.45;100887.56;5014792;28;20045;-46
2023/12/04 05:10:34;;;;;;;14.40;6.90;;;;;;;5.84;59.18;100887.88;5012018;28;20072;-45
2023/12/04 05:12:59;;;;;;;15.00;7.07;;;;;;;5.84;59.23;100879.25;5013074;28;20045;-45
2023/12/04 05:15:25;;;;;;;16.30;8.15;;;;;;;6.02;58.73;100874.69;5012287;28;20026;-47
2023/12/04 05:17:51;;;;;;;17.42;7.50;;;;;;;5.78;59.23;100879.03;5012811;28;20042;-48
2023/12/04 05:20:16;;;;;;;17.65;7.20;;;;;;;5.70;58.93;100873.63;5012642;28;20091;-53
2023/12/04 05:22:42;;;;;;;15.82;7.18;;;;;;;5.97;58.50;100861.63;5012420;28;20084;-45
2023/12/04 05:25:07;;;;;;;14.20;6.90;;;;;;;5.94;58.41;100861.50;5012659;28;20037;-44
2023/12/04 05:27:33;;;;;;;15.68;7.25;;;;;;;5.93;58.07;100862.31;5012199;28;20069;-50
2023/12/04 05:29:58;;;;;;;13.88;7.32;;;;;;;5.69;58.53;100858.91;5012400;28;20069;-45
2023/12/04 05:32:23;;;;;;;15.13;7.20;;;;;;;5.91;58.19;100852.78;5010592;28;20187;-45
2023/12/04 05:34:49;;;;;;;14.98;7.28;;;;;;;6.26;57.65;100862.50;5012581;28;20033;-45
2023/12/04 05:37:14;;;;;;;15.50;7.35;;;;;;;5.86;58.72;100860.34;5012559;28;20030;-44
2023/12/04 05:39:39;;;;;;;17.73;7.32;;;;;;;5.70;59.47;100851.22;5011889;28;20046;-47
2023/12/04 05:42:05;;;;;;;15.25;7.20;;;;;;;5.86;58.88;100846.53;5010907;28;20073;-46
2023/12/04 05:44:31;;;;;;;18.08;7.65;;;;;;;5.75;59.52;100859.13;5011700;28;20038;-45
2023/12/04 05:46:56;;;;;;;15.85;7.40;;;;;;;5.39;60.14;100861.38;5012502;28;20125;-47
2023/12/04 05:49:22;;;;;;;18.27;7.70;;;;;;;5.38;60.47;100856.13;5012235;28;20172;-45
2023/12/04 05:51:47;;;;;;;14.52;6.72;;;;;;;5.68;59.59;100868.38;5011940;28;20445;-46
2023/12/04 05:54:12;;;;;;;17.08;7.10;;;;;;;5.80;59.09;100867.03;5012085;28;20045;-44
2023/12/04 05:56:38;;;;;;;17.27;7.93;;;;;;;5.66;59.66;100867.47;5011878;28;20125;-42
2023/12/04 05:59:04;;;;;;;17.23;7.82;;;;;;;5.76;59.39;100862.59;5012272;28;20045;-44
2023/12/04 06:01:29;;;;;;;17.30;7.82;;;;;;;5.80;59.59;100864.44;5011606;28;20041;-43
2023/12/04 06:03:54;;;;;;;18.05;7.85;;;;;;;6.11;58.66;100860.31;5011975;28;20042;-45
2023/12/04 06:06:19;;;;;;;16.48;7.90;;;;;;;6.17;58.21;100853.56;5012433;28;20528;-45
2023/12/04 06:08:45;;;;;;;17.23;7.90;;;;;;;5.90;58.87;100851.00;5011819;28;20037;-48
2023/12/04 06:11:10;;;;;;;14.90;7.18;;;;;;;6.02;59.14;100854.00;5011534;28;20042;-47
2023/12/04 06:13:35;;;;;;;17.55;7.80;;;;;;;5.95;58.79;100847.75;5011546;28;20511;-45
2023/12/04 06:16:01;;;;;;;17.27;7.97;;;;;;;5.69;59.45;100844.28;5011927;28;20041;-46
2023/12/04 06:18:26;;;;;;;16.85;7.30;;;;;;;5.83;59.40;100844.72;5011655;28;20084;-47
2023/12/04 06:20:52;;;;;;;15.90;7.75;;;;;;;5.89;59.04;100838.91;5011486;28;20492;-46
2023/12/04 06:23:18;;;;;;;16.42;7.88;;;;;;;6.04;58.83;100834.19;5009393;28;20038;-48
2023/12/04 06:25:43;;;;;;;18.38;8.40;;;;;;;6.04;58.90;100824.72;5011368;28;20041;-48
2023/12/04 06:28:09;;;;;;;18.83;8.13;;;;;;;6.05;58.31;100820.44;5011945;28;20040;-45
2023/12/04 06:30:35;;;;;;;14.57;7.25;;;;;;;5.78;58.80;100820.44;5011038;28;20072;-44
2023/12/04 06:33:00;;;;;;;18.98;8.35;;;;;;;6.23;57.76;100825.28;5011884;28;20053;-45
2023/12/04 06:35:26;;;;;;;18.70;7.82;;;;;;;6.25;58.11;100826.22;5011071;28;20049;-44
2023/12/04 06:37:55;;;;;;;19.42;8.18;;;;;;;6.04;58.56;100811.78;5012072;28;20036;-45
2023/12/04 06:40:21;;;;;;;17.33;7.72;;;;;;;6.05;58.24;100817.84;5011356;28;20041;-47
2023/12/04 06:42:47;;;;;;;17.40;8.00;;;;;;;6.09;58.53;100807.66;5011396;28;20033;-46
2023/12/04 06:45:12;;;;;;;18.00;7.88;;;;;;;6.28;57.91;100811.63;5011634;28;20038;-48
2023/12/04 06:47:40;;;;;;;16.58;8.45;;;;;;;6.14;58.51;100805.19;5011977;28;20093;-45
2023/12/04 06:50:06;;;;;;;14.85;7.88;;;;;;;5.82;59.00;100806.75;5012145;28;20068;-46
2023/12/04 06:52:31;;;;;;;15.85;7.30;;;;;;;6.08;58.62;100803.31;5010892;28;20117;-45
2023/12/04 06:54:56;;;;;;;16.65;8.10;;;;;;;6.17;58.30;100801.78;5011409;28;20037;-48
2023/12/04 06:57:22;;;;;;;17.10;7.20;;;;;;;5.86;59.17;100805.13;5011458;28;20062;-45
2023/12/04 06:59:47;;;;;;;15.10;7.20;;;;;;;5.85;59.25;100798.22;5010961;28;20467;-45
2023/12/04 07:02:12;;;;;;;14.15;7.20;;;;;;;5.83;59.55;100805.94;5011075;28;20496;-46
2023/12/04 07:04:37;;;;;;;16.13;7.65;;;;;;;6.04;58.94;100804.03;5010629;28;20045;-45
2023/12/04 07:07:05;;;;;;;14.73;7.10;;;;;;;5.56;59.94;100792.09;5010930;28;20091;-47
2023/12/04 07:09:34;;;;;;;21.13;7.75;;;;;;;5.86;59.14;100798.25;5010617;28;20046;-44
2023/12/04 07:12:01;;;;;;;15.98;7.80;;;;;;;5.88;59.56;100798.34;5011593;28;20136;-45
2023/12/04 07:14:26;;;;;;;17.10;7.78;;;;;;;6.12;58.60;100783.56;5014271;28;20034;-45
2023/12/04 07:16:51;;;;;;;15.80;7.50;;;;;;;5.90;59.36;100786.34;5015548;28;20400;-46
2023/12/04 07:19:17;;;;;;;16.45;7.38;;;;;;;5.90;58.99;100783.75;5015062;28;20102;-47
2023/12/04 07:21:42;;;;;;;17.83;7.80;;;;;;;5.94;59.32;100776.13;5014211;28;20049;-44
2023/12/04 07:24:08;;;;;;;17.17;8.00;;;;;;;5.88;59.19;100759.53;5015180;28;20042;-44
2023/12/04 07:26:34;;;;;;;15.00;7.18;;;;;;;5.77;59.08;100769.53;5014933;28;20038;-45
2023/12/04 07:29:00;;;;;;;16.30;7.05;;;;;;;6.28;58.28;100766.78;5012126;28;20045;-45
2023/12/04 07:31:26;;;;;;;16.50;7.53;;;;;;;6.10;58.37;100767.09;5010284;28;20030;-44
2023/12/04 07:33:55;;;;;;;18.05;8.10;;;;;;;6.02;58.67;100766.88;5011334;28;20038;-45
2023/12/04 07:36:21;;;;;;;15.10;7.13;;;;;;;6.25;57.58;100764.97;5011106;28;20042;-45
2023/12/04 07:38:47;;;;;;;14.40;6.90;;;;;;;6.18;57.89;100768.19;5010439;28;20103;-45
2023/12/04 07:41:13;;;;;;;15.80;7.68;;;;;;;5.94;58.28;100765.75;5010240;28;20566;-45
2023/12/04 07:43:39;;;;;;;14.77;7.45;;;;;;;6.06;57.89;100767.84;5010065;28;20037;-48
2023/12/04 07:46:04;;;;;;;15.57;7.18;;;;;;;6.15;57.26;100769.84;5010560;28;20084;-45
2023/12/04 07:48:30;;;;;;;14.38;6.97;;;;;;;5.81;57.54;100766.19;5009901;28;20132;-46
2023/12/04 07:50:56;;;;;;;15.68;7.18;;;;;;;6.30;56.63;100773.72;5010227;28;20163;-47
2023/12/04 07:53:22;;;;;;;14.40;7.30;;;;;;;6.46;56.77;100757.78;5010235;28;20030;-45
2023/12/04 07:55:49;;;;;;;14.02;7.28;;;;;;;6.34;56.63;100762.63;5009806;28;20076;-44
2023/12/04 07:58:14;;;;;;;15.05;7.40;;;;;;;6.79;55.34;100749.19;5010184;28;20037;-45
2023/12/04 08:00:39;;;;;;;14.27;7.28;;;;;;;6.18;56.26;100751.78;5009568;28;20108;-45
2023/12/04 08:03:05;;;;;;;14.48;7.00;;;;;;;6.36;55.78;100748.00;5010233;28;20403;-44
2023/12/04 08:05:31;;;;;;;17.20;7.28;;;;;;;6.21;56.08;100776.06;5008410;28;20048;-47
2023/12/04 08:07:57;;;;;;;13.63;6.82;;;;;;;6.23;56.50;100769.22;5010474;28;20034;-46
2023/12/04 08:10:22;;;;;;;13.88;7.15;;;;;;;6.78;55.82;100773.34;5010499;28;20125;-46
2023/12/04 08:12:48;;;;;;;15.88;7.68;;;;;;;6.24;56.33;100767.50;5010851;28;20096;-48
2023/12/04 08:15:13;;;;;;;18.42;7.30;;;;;;;6.42;56.01;100768.03;5011025;28;20485;-45
2023/12/04 08:17:39;;;;;;;17.33;7.22;;;;;;;6.34;56.40;100765.22;5010509;28;20064;-46
2023/12/04 08:20:06;;;;;;;14.73;7.20;;;;;;;6.24;56.18;100760.63;5009793;28;20408;-46
2023/12/04 08:22:31;;;;;;;16.13;7.13;;;;;;;6.37;55.89;100751.50;5009431;28;20063;-48
2023/12/04 08:24:57;;;;;;;15.25;7.28;;;;;;;6.06;56.79;100748.00;5008688;28;20038;-46
2023/12/04 08:27:24;;;;;;;16.13;7.63;;;;;;;6.59;55.81;100740.88;5009462;28;20029;-47
2023/12/04 08:29:49;;;;;;;13.35;6.72;;;;;;;6.47;56.00;100749.19;5009719;28;20046;-46
2023/12/04 08:32:14;;;;;;;13.80;7.18;;;;;;;6.26;55.90;100745.13;5009734;28;20045;-48
2023/12/04 08:34:40;;;;;;;14.50;7.32;;;;;;;6.44;55.58;100743.94;5009113;28;20034;-48
2023/12/04 08:37:05;;;;;;;14.23;7.03;;;;;;;6.81;54.70;100735.44;5009813;28;20089;-46
2023/12/04 08:39:30;;;;;;;14.40;6.93;;;;;;;6.47;55.20;100733.66;5009430;28;20030;-46
2023/12/04 08:41:56;;;;;;;12.40;6.47;;;;;;;6.30;55.67;100727.13;5009810;28;20508;-48
2023/12/04 08:44:21;;;;;;;15.63;7.30;;;;;;;6.27;55.87;100724.47;5009819;28;20042;-52
2023/12/04 08:46:46;;;;;;;14.98;7.07;;;;;;;6.34;55.83;100721.19;5011124;28;20030;-46
2023/12/04 08:49:12;;;;;;;14.00;7.20;;;;;;;6.42;55.47;100719.69;5012968;28;20049;-47
2023/12/04 08:51:37;;;;;;;14.88;7.13;;;;;;;6.52;55.34;100710.50;5012665;28;20777;-50
2023/12/04 08:54:02;;;;;;;16.05;6.93;;;;;;;6.81;54.65;100714.72;5013145;28;20034;-47
2023/12/04 08:56:29;;;;;;;13.40;6.75;;;;;;;6.87;54.28;100701.03;5012587;28;20046;-48
2023/12/04 08:58:54;;;;;;;15.05;7.05;;;;;;;6.37;55.03;100705.75;5013534;28;20145;-45
2023/12/04 09:01:20;;;;;;;13.05;7.03;;;;;;;6.84;54.41;100696.66;5012927;28;20078;-48
2023/12/04 09:03:45;;;;;;;12.73;6.53;;;;;;;6.70;54.22;100703.22;5012197;28;20036;-43
2023/12/04 09:06:11;;;;;;;14.57;7.28;;;;;;;6.70;54.09;100707.50;5012837;28;20038;-47
2023/12/04 09:08:36;;;;;;;18.42;7.10;;;;;;;6.71;54.38;100699.75;5012401;28;20034;-49
2023/12/04 09:11:03;;;;;;;13.98;7.00;;;;;;;6.92;54.03;100694.25;5012665;28;20512;-46
2023/12/04 09:13:29;;;;;;;14.68;7.05;;;;;;;7.03;53.84;100697.97;5012428;28;20511;-47
2023/12/04 09:15:55;;;;;;;14.95;7.85;;;;;;;6.89;53.93;100695.03;5012740;28;20519;-44
2023/12/04 09:18:20;;;;;;;14.95;7.00;;;;;;;7.06;53.73;100699.78;5013700;28;20054;-49
2023/12/04 09:20:46;;;;;;;13.35;6.93;;;;;;;6.48;54.26;100708.63;5012345;28;20034;-46
2023/12/04 09:23:12;;;;;;;14.52;6.97;;;;;;;6.81;53.85;100708.66;5012677;28;20510;-47
2023/12/04 09:25:37;;;;;;;18.30;7.70;;;;;;;6.73;54.01;100708.44;5010944;28;20543;-49
2023/12/04 09:28:02;;;;;;;13.13;7.28;;;;;;;6.61;54.59;100710.72;5012886;28;20411;-45
2023/12/04 09:30:28;;;;;;;14.35;7.43;;;;;;;6.92;53.83;100708.09;5011659;28;20611;-45
2023/12/04 09:32:54;;;;;;;12.55;6.63;;;;;;;6.96;53.52;100700.38;5012632;28;20042;-47
2023/12/04 09:35:19;;;;;;;14.43;7.22;;;;;;;7.03;53.61;100705.75;5012187;28;20045;-48
2023/12/04 09:37:45;;;;;;;13.93;7.03;;;;;;;7.15;53.32;100700.88;5012279;28;20038;-45
2023/12/04 09:40:11;;;;;;;14.80;7.20;;;;;;;6.88;53.31;100695.91;5011980;28;20044;-46
2023/12/04 09:42:38;;;;;;;14.25;6.65;;;;;;;7.07;53.21;100699.84;5011621;28;20038;-46
2023/12/04 09:45:05;;;;;;;15.80;7.10;;;;;;;7.18;52.80;100698.38;5012249;28;20034;-51
2023/12/04 09:47:32;;;;;;;13.63;6.80;;;;;;;6.61;53.69;100699.47;5009978;28;20560;-49
2023/12/04 09:49:58;;;;;;;13.48;6.95;;;;;;;6.84;53.30;100688.88;5011961;28;20467;-47
2023/12/04 09:52:24;;;;;;;15.88;7.53;;;;;;;7.24;52.88;100684.69;5011740;28;20077;-51
2023/12/04 09:54:51;;;;;;;14.65;6.68;;;;;;;7.15;53.10;100689.63;5012229;28;20628;-49
2023/12/04 09:57:16;;;;;;;13.80;6.50;;;;;;;7.02;52.85;100682.38;5011565;28;20033;-47
2023/12/04 09:59:44;;;;;;;15.52;6.68;;;;;;;7.09;52.91;100680.00;5011885;28;20041;-45
2023/12/04 10:02:09;;;;;;;12.85;6.78;;;;;;;6.99;52.77;100677.16;5013183;28;20036;-46
2023/12/04 10:04:35;;;;;;;14.75;6.80;;;;;;;7.28;52.38;100670.94;5013497;28;20046;-52
2023/12/04 10:07:01;;;;;;;13.43;6.50;;;;;;;6.77;52.60;100666.22;5011342;28;20117;-48
2023/12/04 10:09:26;;;;;;;13.05;6.65;;;;;;;6.96;52.81;100666.69;5011875;28;20129;-45
2023/12/04 10:11:52;;;;;;;14.70;6.50;;;;;;;7.19;52.30;100663.84;5011948;28;20030;-45
2023/12/04 10:14:19;;;;;;;13.48;6.75;;;;;;;6.72;53.36;100648.81;5011857;28;20500;-48
2023/12/04 10:16:46;;;;;;;13.48;6.68;;;;;;;6.85;53.44;100645.69;5011184;28;20404;-49
2023/12/04 10:19:17;;;;;;;13.48;7.07;;;;;;;7.16;52.54;100645.59;5011546;28;20037;-44
2023/12/04 10:21:42;;;;;;;13.15;6.75;;;;;;;6.45;53.51;100643.81;5011450;28;20435;-48
2023/12/04 10:24:09;;;;;;;14.05;6.78;;;;;;;6.53;53.70;100636.25;5011753;28;20060;-48
2023/12/04 10:26:34;;;;;;;15.70;7.00;;;;;;;7.06;53.04;100638.47;5010862;28;20052;-46
2023/12/04 10:29:01;;;;;;;13.90;6.97;;;;;;;7.22;52.79;100632.78;5009871;28;20404;-49
2023/12/04 10:31:32;;;;;;;14.65;6.82;;;;;;;6.95;53.09;100629.56;5010520;28;20177;-48
2023/12/04 10:33:57;;;;;;;13.75;6.82;;;;;;;6.76;53.50;100623.06;5011072;28;20091;-45
2023/12/04 10:36:23;;;;;;;13.48;6.72;;;;;;;6.88;53.02;100612.09;5011145;28;20120;-45
2023/12/04 10:38:59;;;;;;;13.57;6.65;;;;;;;6.74;53.49;100606.59;5010969;28;20540;-48
2023/12/04 10:41:24;;;;;;;12.20;6.32;;;;;;;6.75;53.27;100604.88;5010868;28;20045;-47
2023/12/04 10:43:49;;;;;;;12.32;6.88;;;;;;;7.46;52.28;100598.72;5011176;28;20119;-48
2023/12/04 10:46:18;;;;;;;14.77;6.95;;;;;;;7.64;51.98;100601.72;5011265;28;20061;-46
2023/12/04 10:48:47;;;;;;;14.32;6.60;;;;;;;7.17;52.12;100589.44;5010654;28;20048;-44
2023/12/04 10:51:13;;;;;;;12.63;6.40;;;;;;;7.38;52.47;100592.50;5010680;28;20496;-47
2023/12/04 10:53:42;;;;;;;11.20;6.30;;;;;;;7.86;51.36;100590.06;5011113;28;20060;-49
2023/12/04 10:56:10;;;;;;;12.48;6.55;;;;;;;7.99;50.98;100589.44;5009913;28;20042;-45
2023/12/04 10:58:39;;;;;;;13.43;6.53;;;;;;;7.92;50.61;100584.13;5011169;28;20042;-49
2023/12/04 11:01:08;;;;;;;12.45;6.63;;;;;;;8.18;50.22;100581.97;5011048;28;20046;-50
2023/12/04 11:03:44;;;;;;;11.80;6.13;;;;;;;8.14;50.33;100574.16;5010911;28;20037;-45
2023/12/04 11:06:11;;;;;;;11.13;6.40;;;;;;;8.22;49.96;100568.22;5010080;28;20603;-46
2023/12/04 11:08:41;;;;;;;12.52;6.32;;;;;;;7.96;50.12;100558.22;5010771;28;20042;-45
2023/12/04 11:11:12;;;;;;;12.15;6.50;;;;;;;8.39;49.88;100556.44;5012383;28;20484;-46
2023/12/04 11:13:45;;;;;;;12.15;6.88;;;;;;;8.19;50.14;100561.25;5012009;28;20044;-46
2023/12/04 11:16:32;;;;;;;11.27;6.72;;;;;;;8.21;49.91;100562.16;5012600;28;20063;-44
2023/12/04 11:19:13;;;;;;;10.57;5.93;;;;;;;7.97;49.82;100560.00;5013848;28;20084;-45